Southwest Florida International Airport

Date: 2024-06-11 13:08:00Z

Type: SPECI

Weather: Light Rain

Winds: 210° at 6 kts

Visibility: 5

Ceiling (AGL FT): Clouds FEW at 1400, BROKEN at 5500, OVERCAST at 11000, FEW at 2500

RAW METAR: KRSW 111308Z 21006KT 5SM -RA BR FEW014 BKN055 OVC110 24/24 A2991 RMK AO2 LTG DSNT E P0003 T02440244

project-image